createdAt,value
2023-02-14T00:01:46.818Z,4.60
2023-02-14T00:04:15.303Z,4.40
2023-02-14T00:06:43.613Z,5.40
2023-02-14T00:09:12.904Z,4.60
2023-02-14T00:11:41.551Z,4.80
2023-02-14T00:28:39.950Z,5.10
2023-02-14T00:31:08.590Z,5.10
2023-02-14T00:33:36.863Z,4.70
2023-02-14T00:36:07.524Z,4.30
2023-02-14T00:38:37.274Z,4.40
2023-02-14T00:41:05.907Z,4.80
2023-02-14T00:43:34.096Z,5.10
2023-02-14T00:46:02.385Z,4.50
2023-02-14T00:48:30.551Z,4.70
2023-02-14T00:50:59.131Z,4.90
2023-02-14T00:53:27.735Z,4.70
2023-02-14T00:55:55.865Z,4.10
2023-02-14T00:58:24.040Z,4.20
2023-02-14T01:00:52.858Z,4.50
2023-02-14T01:03:21.798Z,4.50
2023-02-14T01:05:50.641Z,4.10
2023-02-14T01:08:19.273Z,3.90
2023-02-14T01:10:47.961Z,4.40
2023-02-14T01:13:16.782Z,4.10
2023-02-14T01:15:46.709Z,4.20
2023-02-14T01:18:15.760Z,4.30
2023-02-14T01:20:44.985Z,4.40
2023-02-14T01:23:13.393Z,4.30
2023-02-14T01:25:42.490Z,4.60
2023-02-14T01:28:10.620Z,4.10
2023-02-14T01:30:40.302Z,4.70
2023-02-14T01:33:10.766Z,4.30
2023-02-14T01:35:40.023Z,4.10
2023-02-14T01:38:08.727Z,4.10
2023-02-14T01:40:43.491Z,3.70
2023-02-14T01:43:15.768Z,4.10
2023-02-14T01:45:44.426Z,4.10
2023-02-14T01:48:14.574Z,4.40
2023-02-14T01:50:44.641Z,4.00
2023-02-14T01:53:17.670Z,4.10
2023-02-14T01:55:48.072Z,4.20
2023-02-14T01:58:20.177Z,4.20
2023-02-14T02:00:59.014Z,4.10
2023-02-14T02:03:33.008Z,3.90
2023-02-14T02:06:24.333Z,3.80
2023-02-14T02:08:59.671Z,3.90
2023-02-14T02:11:29.341Z,3.80
2023-02-14T02:13:57.585Z,5.20
2023-02-14T02:16:29.204Z,4.20
2023-02-14T02:19:10.537Z,4.00
2023-02-14T02:22:04.751Z,4.40
2023-02-14T02:24:45.063Z,4.20
2023-02-14T02:27:17.304Z,3.60
2023-02-14T02:29:45.444Z,4.20
2023-02-14T02:32:32.075Z,3.40
2023-02-14T02:35:11.109Z,4.00
2023-02-14T02:37:55.659Z,4.00
2023-02-14T02:40:27.029Z,3.90
2023-02-14T02:43:21.151Z,4.20
2023-02-14T02:46:20.126Z,4.00
2023-02-14T02:49:04.937Z,5.10
2023-02-14T02:52:00.601Z,4.10
2023-02-14T02:54:35.374Z,4.60
2023-02-14T02:57:05.754Z,4.20
2023-02-14T02:59:39.669Z,4.00
2023-02-14T03:02:10.397Z,3.90
2023-02-14T03:04:53.352Z,3.80
2023-02-14T03:07:42.088Z,4.20
2023-02-14T03:10:17.164Z,3.70
2023-02-14T03:13:03.162Z,3.80
2023-02-14T03:15:52.591Z,4.70
2023-02-14T03:18:55.369Z,3.80
2023-02-14T03:21:26.594Z,4.90
2023-02-14T03:24:13.397Z,4.10
2023-02-14T03:26:49.814Z,4.90
2023-02-14T03:29:35.579Z,4.30
2023-02-14T03:32:44.288Z,4.10
2023-02-14T03:35:21.734Z,4.20
2023-02-14T03:37:54.642Z,4.20
2023-02-14T03:40:35.077Z,3.80
2023-02-14T03:43:31.116Z,3.70
2023-02-14T03:46:13.224Z,3.80
2023-02-14T03:48:41.375Z,4.30
2023-02-14T03:51:11.481Z,4.00
2023-02-14T03:53:43.741Z,3.90
2023-02-14T03:56:18.878Z,4.10
2023-02-14T03:58:52.052Z,3.40
2023-02-14T04:01:48.856Z,3.60
2023-02-14T04:04:19.589Z,3.70
2023-02-14T04:06:48.912Z,3.40
2023-02-14T04:09:17.283Z,4.30
2023-02-14T04:11:46.620Z,3.20
2023-02-14T04:14:15.039Z,2.90
2023-02-14T04:17:01.866Z,3.30
2023-02-14T04:19:30.595Z,3.30
2023-02-14T04:21:58.683Z,3.30
2023-02-14T04:24:27.046Z,3.20
2023-02-14T04:27:10.463Z,3.50
2023-02-14T04:29:40.872Z,2.60
2023-02-14T04:32:11.048Z,2.70
2023-02-14T04:34:39.348Z,3.30
2023-02-14T04:37:07.897Z,3.50
2023-02-14T04:39:36.369Z,3.50
2023-02-14T04:42:04.784Z,3.70
2023-02-14T04:44:34.277Z,3.70
2023-02-14T04:47:02.476Z,3.50
2023-02-14T04:49:31.719Z,3.10
2023-02-14T04:52:00.036Z,3.00
2023-02-14T04:54:28.486Z,2.70
2023-02-14T04:56:56.607Z,2.90
2023-02-14T04:59:25.630Z,2.90
2023-02-14T05:01:53.876Z,2.60
2023-02-14T05:04:22.826Z,3.60
2023-02-14T05:06:51.066Z,2.40
2023-02-14T05:09:20.215Z,2.90
2023-02-14T05:11:48.898Z,2.90
2023-02-14T05:14:17.045Z,3.10
2023-02-14T05:16:49.092Z,2.60
2023-02-14T05:19:17.355Z,4.10
2023-02-14T05:21:46.170Z,2.80
2023-02-14T05:24:15.918Z,2.90
2023-02-14T05:26:47.922Z,2.60
2023-02-14T05:29:16.018Z,2.70
2023-02-14T05:31:44.555Z,3.20
2023-02-14T05:34:13.132Z,2.80
2023-02-14T05:36:41.224Z,2.60
2023-02-14T05:39:10.965Z,2.10
2023-02-14T05:44:06.267Z,2.90
2023-02-14T05:46:38.145Z,2.90
2023-02-14T05:49:06.650Z,3.00
2023-02-14T05:51:34.775Z,2.90
2023-02-14T05:54:03.377Z,3.00
2023-02-14T05:56:31.501Z,3.00
2023-02-14T05:58:59.732Z,2.70
2023-02-14T06:01:27.882Z,2.80
2023-02-14T06:03:55.976Z,3.20
2023-02-14T06:06:24.255Z,3.50
2023-02-14T06:08:53.010Z,3.30
2023-02-14T06:11:21.229Z,3.40
2023-02-14T06:13:51.396Z,3.50
2023-02-14T06:16:19.878Z,2.80
2023-02-14T06:18:48.034Z,3.50
2023-02-14T06:21:16.164Z,2.90
2023-02-14T06:23:44.379Z,3.60
2023-02-14T06:26:12.800Z,3.50
2023-02-14T06:28:40.901Z,3.40
2023-02-14T06:31:15.301Z,3.30
2023-02-14T06:33:43.655Z,3.20
2023-02-14T06:36:11.825Z,3.40
2023-02-14T06:38:40.015Z,3.10
2023-02-14T06:41:09.180Z,2.90
2023-02-14T06:43:39.688Z,2.60
2023-02-14T06:46:10.312Z,2.80
2023-02-14T06:48:39.503Z,2.80
2023-02-14T06:51:08.132Z,3.10
2023-02-14T06:53:36.407Z,2.70
2023-02-14T06:56:04.758Z,3.10
2023-02-14T06:58:32.925Z,3.30
2023-02-14T07:01:01.497Z,2.70
2023-02-14T07:03:31.142Z,2.90
2023-02-14T07:05:59.823Z,3.00
2023-02-14T07:08:28.227Z,2.70
2023-02-14T07:10:58.117Z,2.50
2023-02-14T07:13:26.485Z,2.50
2023-02-14T07:15:54.701Z,2.60
2023-02-14T07:18:23.024Z,2.70
2023-02-14T07:20:53.651Z,2.20
2023-02-14T07:23:22.289Z,2.30
2023-02-14T07:25:50.376Z,2.30
2023-02-14T07:28:19.086Z,2.50
2023-02-14T07:30:47.863Z,2.20
2023-02-14T07:33:16.727Z,2.30
2023-02-14T07:35:45.017Z,3.40
2023-02-14T07:38:15.071Z,2.30
2023-02-14T07:40:43.493Z,2.90
2023-02-14T07:43:13.889Z,2.60
2023-02-14T07:45:41.953Z,2.60
2023-02-14T07:48:10.101Z,3.00
2023-02-14T07:50:38.294Z,2.70
2023-02-14T07:53:08.686Z,2.50
2023-02-14T07:55:37.398Z,2.50
2023-02-14T07:58:05.494Z,2.90
2023-02-14T08:00:33.679Z,2.60
2023-02-14T08:03:05.564Z,2.50
2023-02-14T08:05:33.856Z,2.70
2023-02-14T08:08:02.148Z,2.70
2023-02-14T08:10:33.194Z,2.70
2023-02-14T08:13:01.551Z,2.60
2023-02-14T08:15:53.025Z,2.70
2023-02-14T08:18:23.292Z,2.30
2023-02-14T08:20:52.245Z,2.60
2023-02-14T08:23:21.550Z,2.50
2023-02-14T08:25:51.651Z,2.30
2023-02-14T08:28:22.012Z,2.60
2023-02-14T08:30:50.260Z,2.20
2023-02-14T08:33:19.167Z,2.10
2023-02-14T08:35:47.353Z,2.50
2023-02-14T08:38:15.472Z,3.10
2023-02-14T08:40:43.863Z,2.00
2023-02-14T08:43:12.222Z,2.40
2023-02-14T08:45:40.796Z,2.00
2023-02-14T08:48:11.069Z,2.50
2023-02-14T08:50:41.279Z,2.30
2023-02-14T08:53:10.750Z,2.10
2023-02-14T08:55:39.578Z,2.30
2023-02-14T08:58:08.338Z,2.40
2023-02-14T09:00:36.638Z,2.40
2023-02-14T09:03:05.064Z,2.70
2023-02-14T09:05:35.310Z,2.50
2023-02-14T09:08:03.622Z,2.10
2023-02-14T09:10:35.912Z,2.10
2023-02-14T09:13:04.676Z,2.30
2023-02-14T09:15:32.798Z,2.40
2023-02-14T09:18:03.359Z,2.60
2023-02-14T09:20:32.532Z,2.60
2023-02-14T09:23:00.653Z,2.00
2023-02-14T09:25:29.599Z,2.40
2023-02-14T09:27:58.641Z,2.40
2023-02-14T09:30:26.938Z,2.10
2023-02-14T09:32:55.201Z,2.30
2023-02-14T09:35:23.569Z,2.60
2023-02-14T09:37:51.700Z,2.50
2023-02-14T09:40:20.793Z,2.60
2023-02-14T09:43:05.561Z,2.40
2023-02-14T09:45:34.068Z,2.60
2023-02-14T09:48:11.435Z,2.20
2023-02-14T09:50:47.615Z,2.00
2023-02-14T09:53:15.859Z,2.40
2023-02-14T09:56:20.801Z,2.50
2023-02-14T09:59:19.062Z,2.30
2023-02-14T10:01:58.181Z,2.20
2023-02-14T10:04:53.273Z,2.60
2023-02-14T10:07:46.337Z,2.70
2023-02-14T10:10:14.849Z,2.30
2023-02-14T10:12:53.952Z,2.60
2023-02-14T10:15:26.437Z,2.40
2023-02-14T10:18:01.233Z,2.70
2023-02-14T10:20:50.646Z,3.10
2023-02-14T10:23:40.171Z,2.90
2023-02-14T10:26:11.459Z,2.90
2023-02-14T10:28:49.286Z,2.40
2023-02-14T10:31:23.614Z,2.80
2023-02-14T10:34:21.426Z,2.60
2023-02-14T10:37:00.752Z,2.50
2023-02-14T10:39:51.890Z,2.60
2023-02-14T10:42:20.058Z,2.40
2023-02-14T10:45:06.968Z,3.30
2023-02-14T10:47:54.372Z,2.50
2023-02-14T10:50:31.812Z,2.30
2023-02-14T10:53:15.378Z,2.30
2023-02-14T10:55:52.377Z,2.90
2023-02-14T10:58:21.592Z,2.30
2023-02-14T11:01:16.512Z,2.10
2023-02-14T11:04:06.813Z,2.10
2023-02-14T11:06:35.667Z,2.40
2023-02-14T11:09:04.047Z,2.20
2023-02-14T11:11:36.654Z,2.50
2023-02-14T11:16:54.622Z,2.10
2023-02-14T11:19:30.973Z,1.90
2023-02-14T11:22:00.676Z,1.80
2023-02-14T11:24:35.100Z,2.90
2023-02-14T11:27:05.560Z,1.90
2023-02-14T11:29:41.097Z,2.10
2023-02-14T11:32:10.873Z,1.80
2023-02-14T11:35:07.325Z,1.90
2023-02-14T11:37:43.055Z,1.60
2023-02-14T11:40:29.817Z,1.90
2023-02-14T11:45:43.714Z,1.70
2023-02-14T11:48:37.152Z,1.60
2023-02-14T11:51:11.120Z,2.30
2023-02-14T11:53:45.911Z,2.40
2023-02-14T11:56:15.439Z,1.70
2023-02-14T11:58:52.210Z,1.50
2023-02-14T12:01:28.382Z,1.50
2023-02-14T12:04:01.092Z,2.10
2023-02-14T12:06:31.853Z,1.80
2023-02-14T12:09:25.106Z,1.70
2023-02-14T12:12:15.582Z,1.90
2023-02-14T12:14:44.002Z,1.80
2023-02-14T12:17:13.490Z,1.90
2023-02-14T12:19:47.639Z,2.00
2023-02-14T12:22:36.929Z,1.70
2023-02-14T12:25:10.818Z,2.30
2023-02-14T12:28:01.551Z,2.30
2023-02-14T12:30:32.831Z,1.90
2023-02-14T12:34:18.186Z,2.40
2023-02-14T12:37:13.036Z,2.00
2023-02-14T12:40:05.462Z,2.60
2023-02-14T12:43:12.003Z,2.70
2023-02-14T12:46:05.700Z,3.10
2023-02-14T12:48:33.988Z,2.60
2023-02-14T12:51:21.015Z,2.30
2023-02-14T12:54:10.927Z,2.90
2023-02-14T12:56:42.326Z,2.30
2023-02-14T12:59:17.441Z,2.10
2023-02-14T13:02:10.639Z,2.80
2023-02-14T13:04:52.626Z,2.90
2023-02-14T13:07:38.303Z,2.20
2023-02-14T13:10:13.246Z,2.60
2023-02-14T13:12:51.087Z,2.20
2023-02-14T13:15:27.308Z,2.40
2023-02-14T13:18:37.811Z,1.90
2023-02-14T13:21:06.946Z,1.80
2023-02-14T13:23:40.649Z,2.10
2023-02-14T13:26:17.739Z,1.90
2023-02-14T13:29:20.601Z,2.30
2023-02-14T13:31:49.891Z,2.40
2023-02-14T13:34:46.917Z,2.10
2023-02-14T13:37:20.168Z,1.90
2023-02-14T13:39:51.679Z,2.30
2023-02-14T13:42:48.745Z,2.30
2023-02-14T13:45:53.975Z,2.20
2023-02-14T13:48:28.551Z,1.80
2023-02-14T13:51:07.430Z,2.10
2023-02-14T13:53:35.746Z,2.00
2023-02-14T13:56:16.907Z,2.10
2023-02-14T13:59:00.133Z,2.20
2023-02-14T14:01:29.492Z,2.10
2023-02-14T14:04:24.871Z,2.20
2023-02-14T14:07:05.278Z,2.20
2023-02-14T14:09:43.793Z,2.50
2023-02-14T14:12:27.422Z,2.20
2023-02-14T14:15:05.722Z,2.30
2023-02-14T14:17:41.924Z,2.50
2023-02-14T14:20:15.957Z,2.30
2023-02-14T14:22:51.352Z,2.30
2023-02-14T14:25:34.363Z,2.60
2023-02-14T14:28:02.619Z,2.30
2023-02-14T14:30:33.671Z,2.20
2023-02-14T14:33:14.807Z,2.80
2023-02-14T14:35:59.858Z,2.40
2023-02-14T14:38:29.065Z,2.00
2023-02-14T14:40:57.962Z,2.30
2023-02-14T14:43:36.648Z,1.90
2023-02-14T14:46:05.032Z,2.10
2023-02-14T14:48:39.374Z,2.00
2023-02-14T14:51:08.383Z,2.00
2023-02-14T14:53:49.007Z,2.20
2023-02-14T14:56:22.541Z,2.10
2023-02-14T14:58:50.746Z,2.40
2023-02-14T15:01:39.145Z,3.00
2023-02-14T15:04:12.244Z,2.80
2023-02-14T15:06:41.280Z,2.80
2023-02-14T15:09:17.192Z,2.90
2023-02-14T15:12:06.679Z,3.70
2023-02-14T15:14:39.466Z,2.20
2023-02-14T15:17:15.715Z,2.30
2023-02-14T15:19:46.298Z,2.50
2023-02-14T15:22:23.373Z,2.10
2023-02-14T15:24:52.208Z,2.30
2023-02-14T15:27:22.526Z,2.00
2023-02-14T15:30:06.823Z,2.00
2023-02-14T15:32:36.093Z,2.50
2023-02-14T15:35:05.577Z,2.40
2023-02-14T15:37:34.379Z,2.60
2023-02-14T15:40:08.906Z,3.00
2023-02-14T15:42:40.893Z,2.80
2023-02-14T15:45:24.796Z,3.20
2023-02-14T15:47:57.393Z,3.10
2023-02-14T15:50:33.035Z,3.30
2023-02-14T15:55:33.645Z,3.70
2023-02-14T15:58:15.489Z,2.80
2023-02-14T16:00:44.255Z,2.60
2023-02-14T16:03:15.356Z,3.00
2023-02-14T16:05:46.972Z,2.90
2023-02-14T16:08:31.437Z,2.50
2023-02-14T16:11:02.787Z,1.80
2023-02-14T16:13:34.362Z,2.40
2023-02-14T16:16:09.696Z,1.70
2023-02-14T16:18:40.705Z,2.10
2023-02-14T16:21:32.302Z,1.80
2023-02-14T16:24:12.364Z,2.00
2023-02-14T16:26:44.363Z,2.70
2023-02-14T16:29:17.253Z,2.60
2023-02-14T16:32:12.060Z,2.60
2023-02-14T16:34:37.445Z,2.80
2023-02-14T16:37:18.675Z,2.90
2023-02-14T16:39:47.151Z,2.30
2023-02-14T16:42:19.496Z,2.00
2023-02-14T16:44:48.247Z,2.10
2023-02-14T16:47:17.874Z,2.20
2023-02-14T16:49:46.117Z,2.10
2023-02-14T16:52:19.782Z,1.50
2023-02-14T16:54:48.593Z,2.20
2023-02-14T16:57:37.755Z,2.40
2023-02-14T17:00:08.400Z,2.20
2023-02-14T17:02:36.758Z,2.40
2023-02-14T17:05:05.647Z,3.20
2023-02-14T17:07:33.801Z,3.00
2023-02-14T17:10:06.819Z,3.20
2023-02-14T17:12:37.082Z,3.00
2023-02-14T17:15:08.014Z,2.20
2023-02-14T17:17:36.514Z,2.30
2023-02-14T17:20:06.064Z,3.10
2023-02-14T17:22:36.823Z,1.90
2023-02-14T17:25:05.798Z,2.30
2023-02-14T17:27:35.652Z,2.20
2023-02-14T17:30:05.120Z,2.20
2023-02-14T17:32:35.226Z,2.00
2023-02-14T17:35:05.479Z,2.00
2023-02-14T17:37:33.822Z,1.90
2023-02-14T17:40:02.490Z,2.00
2023-02-14T17:42:32.824Z,1.80
2023-02-14T17:45:01.212Z,2.30
2023-02-14T17:47:30.119Z,2.10
2023-02-14T17:49:58.987Z,3.50
2023-02-14T17:52:28.701Z,2.90
2023-02-14T17:54:57.033Z,3.10
2023-02-14T17:57:26.118Z,2.80
2023-02-14T17:59:54.281Z,2.90
2023-02-14T18:02:22.679Z,2.70
2023-02-14T18:04:51.313Z,2.50
2023-02-14T18:07:19.521Z,2.30
2023-02-14T18:09:47.698Z,2.30
2023-02-14T18:12:20.045Z,2.70
2023-02-14T18:14:48.542Z,2.40
2023-02-14T18:17:16.664Z,2.40
2023-02-14T18:19:46.768Z,2.60
2023-02-14T18:22:15.721Z,2.60
2023-02-14T18:24:46.543Z,2.30
2023-02-14T18:27:16.286Z,2.40
2023-02-14T18:29:44.448Z,2.60
2023-02-14T18:32:12.689Z,2.80
2023-02-14T18:34:41.912Z,3.50
2023-02-14T18:37:28.785Z,2.70
2023-02-14T18:39:57.527Z,3.20
2023-02-14T18:42:25.946Z,3.40
2023-02-14T18:44:54.046Z,3.30
2023-02-14T18:47:22.635Z,2.50
2023-02-14T18:49:50.757Z,2.80
2023-02-14T18:52:18.948Z,2.30
2023-02-14T18:54:47.261Z,2.50
2023-02-14T18:57:15.385Z,2.70
2023-02-14T18:59:43.586Z,2.00
2023-02-14T19:02:12.260Z,2.20
2023-02-14T19:04:40.593Z,2.70
2023-02-14T19:07:09.638Z,2.90
2023-02-14T19:09:40.015Z,2.50
2023-02-14T19:12:09.594Z,2.90
2023-02-14T19:14:38.281Z,3.60
2023-02-14T19:17:06.872Z,2.80
2023-02-14T19:19:37.110Z,3.40
2023-02-14T19:22:05.425Z,3.40
2023-02-14T19:24:35.151Z,3.60
2023-02-14T19:27:03.931Z,3.20
2023-02-14T19:29:32.627Z,3.00
2023-02-14T19:32:01.013Z,3.00
2023-02-14T19:34:29.999Z,3.50
2023-02-14T19:37:01.010Z,3.30
2023-02-14T19:39:30.103Z,3.30
2023-02-14T19:41:58.682Z,3.50
2023-02-14T19:44:28.944Z,3.80
2023-02-14T19:47:00.202Z,3.30
2023-02-14T19:49:29.236Z,3.60
2023-02-14T19:51:57.667Z,3.40
2023-02-14T19:54:26.038Z,4.00
2023-02-14T19:56:56.542Z,3.50
2023-02-14T19:59:25.034Z,3.20
2023-02-14T20:01:53.712Z,2.70
2023-02-14T20:04:23.705Z,3.60
2023-02-14T20:06:52.494Z,2.70
2023-02-14T20:09:23.999Z,3.10
2023-02-14T20:11:57.053Z,2.90
2023-02-14T20:14:28.817Z,2.80
2023-02-14T20:16:58.534Z,2.80
2023-02-14T20:19:29.503Z,2.80
2023-02-14T20:21:58.052Z,2.40
2023-02-14T20:24:31.477Z,2.90
2023-02-14T20:27:00.685Z,2.90
2023-02-14T20:29:30.206Z,3.00
2023-02-14T20:32:00.300Z,2.80
2023-02-14T20:34:30.421Z,2.60
2023-02-14T20:36:59.649Z,2.80
2023-02-14T20:39:30.798Z,2.60
2023-02-14T20:41:59.984Z,2.60
2023-02-14T20:44:28.841Z,2.50
2023-02-14T20:46:57.748Z,3.20
2023-02-14T20:49:27.535Z,2.70
2023-02-14T20:51:56.252Z,2.20
2023-02-14T20:54:26.225Z,2.70
2023-02-14T20:56:54.878Z,3.00
2023-02-14T20:59:27.299Z,3.20
2023-02-14T21:01:56.929Z,3.30
2023-02-14T21:04:25.780Z,2.90
2023-02-14T21:06:54.792Z,3.00
2023-02-14T21:09:27.299Z,2.50
2023-02-14T21:11:55.457Z,2.40
2023-02-14T21:14:23.773Z,3.30
2023-02-14T21:16:54.689Z,2.90
2023-02-14T21:19:23.024Z,3.00
2023-02-14T21:21:52.172Z,2.80
2023-02-14T21:24:20.890Z,2.40
2023-02-14T21:26:49.474Z,2.60
2023-02-14T21:29:17.933Z,2.50
2023-02-14T21:31:46.452Z,2.30
2023-02-14T21:34:15.333Z,2.50
2023-02-14T21:36:43.536Z,2.40
2023-02-14T21:39:11.928Z,2.10
2023-02-14T21:41:40.145Z,2.20
2023-02-14T21:44:08.581Z,1.80
2023-02-14T21:46:38.913Z,2.10
2023-02-14T21:49:26.897Z,2.30
2023-02-14T21:51:55.101Z,1.60
2023-02-14T21:54:24.491Z,1.90
2023-02-14T21:56:52.715Z,2.10
2023-02-14T21:59:24.468Z,2.50
2023-02-14T22:01:53.114Z,1.90
2023-02-14T22:04:21.253Z,2.90
2023-02-14T22:06:49.467Z,2.90
2023-02-14T22:09:19.090Z,2.90
2023-02-14T22:11:50.017Z,2.80
2023-02-14T22:14:18.303Z,2.20
2023-02-14T22:16:48.384Z,2.50
2023-02-14T22:19:16.521Z,2.10
2023-02-14T22:21:45.221Z,2.10
2023-02-14T22:24:13.785Z,2.30
2023-02-14T22:26:42.310Z,2.30
2023-02-14T22:29:13.821Z,1.90
2023-02-14T22:31:42.873Z,3.30
2023-02-14T22:34:13.588Z,2.30
2023-02-14T22:36:41.990Z,2.10
2023-02-14T22:39:13.044Z,2.30
2023-02-14T22:41:45.172Z,2.20
2023-02-14T22:44:13.694Z,2.90
2023-02-14T22:46:43.119Z,2.30
2023-02-14T22:49:11.329Z,2.20
2023-02-14T22:51:41.824Z,2.80
2023-02-14T22:54:14.750Z,2.90
2023-02-14T22:56:44.441Z,3.00
2023-02-14T22:59:21.984Z,2.80
2023-02-14T23:01:51.509Z,2.70
2023-02-14T23:04:21.986Z,2.60
2023-02-14T23:06:51.228Z,2.80
2023-02-14T23:09:19.910Z,3.10
2023-02-14T23:11:49.641Z,2.70
2023-02-14T23:14:37.185Z,2.30
2023-02-14T23:17:14.890Z,2.10
2023-02-14T23:20:02.128Z,2.80
2023-02-14T23:22:31.548Z,1.90
2023-02-14T23:25:00.962Z,2.50
2023-02-14T23:27:35.077Z,2.40
2023-02-14T23:30:07.457Z,2.60
2023-02-14T23:32:36.234Z,2.10
2023-02-14T23:35:04.550Z,2.30
2023-02-14T23:37:33.737Z,2.50
2023-02-14T23:40:02.338Z,2.30
2023-02-14T23:42:31.307Z,2.50
2023-02-14T23:45:21.057Z,2.20
2023-02-14T23:47:49.205Z,2.40
2023-02-14T23:50:18.487Z,2.60
2023-02-14T23:52:47.189Z,2.90
2023-02-14T23:55:15.374Z,2.90
2023-02-14T23:57:44.023Z,2.50
